Time;durP1;ratioP1;P1;durP2;ratioP2;P2;SDS_P1;SDS_P2;PMS_P1;PMS_P2;Temp;Humidity;BMP_temperature;BMP_pressure;BME280_temperature;BME280_humidity;BME280_pressure;Samples;Min_cycle;Max_cycle;Signal;HPM_P1;HPM_P2
2021/01/30 00:00:08;;;;;;;48.90;26.57;;;-0.50;1.00;;;;;;4881776;28;20626;-75
2021/01/30 00:02:30;;;;;;;48.53;25.50;;;;;;;;;;4881842;28;20707;-75
2021/01/30 00:04:53;;;;;;;40.13;21.77;;;;;;;;;;4889752;28;20664;-74
2021/01/30 00:07:16;;;;;;;35.97;20.53;;;-0.50;1.00;;;;;;4884813;28;20746;-75
2021/01/30 00:09:38;;;;;;;34.90;18.50;;;;;;;;;;4882827;28;20969;-74
2021/01/30 00:12:02;;;;;;;33.23;17.80;;;-0.60;1.00;;;;;;4883730;28;20615;-74
2021/01/30 00:14:24;;;;;;;35.13;18.87;;;;;;;;;;4885559;28;20607;-74
2021/01/30 00:16:47;;;;;;;34.60;18.80;;;;;;;;;;4883135;28;20617;-74
2021/01/30 00:19:09;;;;;;;36.93;19.50;;;;;;;;;;4889495;28;20598;-75
2021/01/30 00:21:31;;;;;;;35.13;18.60;;;;;;;;;;4882796;28;20638;-75
2021/01/30 00:23:54;;;;;;;39.20;20.97;;;-0.70;1.00;;;;;;4884328;28;21005;-75
2021/01/30 00:26:16;;;;;;;47.63;23.63;;;;;;;;;;4866311;28;20991;-74
2021/01/30 00:28:40;;;;;;;46.27;22.13;;;-0.70;1.00;;;;;;4882763;28;20999;-74
2021/01/30 00:31:02;;;;;;;36.37;19.77;;;;;;;;;;4881086;28;20631;-74
2021/01/30 00:33:24;;;;;;;35.20;18.03;;;;;;;;;;4891062;28;20609;-74
2021/01/30 00:35:47;;;;;;;33.87;18.37;;;;;;;;;;4883313;28;21007;-75
2021/01/30 00:38:09;;;;;;;36.30;19.77;;;;;;;;;;4882475;28;20652;-74
2021/01/30 00:40:32;;;;;;;38.47;20.80;;;-0.80;1.00;;;;;;4882982;28;20676;-75
2021/01/30 00:42:54;;;;;;;36.63;21.47;;;;;;;;;;4882692;28;20656;-74
2021/01/30 00:45:19;;;;;;;41.57;22.47;;;-0.70;1.00;;;;;;4883869;28;20724;-75
2021/01/30 00:47:41;;;;;;;37.00;20.90;;;-0.70;1.00;;;;;;4886185;28;20612;-74
2021/01/30 00:50:04;;;;;;;36.37;20.53;;;;;;;;;;4884360;28;21623;-74
2021/01/30 00:52:27;;;;;;;34.00;17.67;;;;;;;;;;4885392;28;20657;-75
2021/01/30 00:55:01;;;;;;;33.90;18.27;;;;;;;;;;4884279;28;20192;-75
2021/01/30 00:57:25;;;;;;;41.20;20.50;;;-0.70;1.00;;;;;;4883811;28;21139;-75
2021/01/30 00:59:47;;;;;;;35.70;19.17;;;;;;;;;;4883073;28;20598;-75
2021/01/30 01:02:10;;;;;;;46.07;22.27;;;;;;;;;;4883589;28;20711;-74
2021/01/30 01:04:39;;;;;;;34.73;20.57;;;;;;;;;;4884781;28;20685;-75
2021/01/30 01:07:01;;;;;;;40.47;21.67;;;;;;;;;;4885358;28;20675;-75
2021/01/30 01:09:24;;;;;;;33.27;18.73;;;;;;;;;;4883576;28;20626;-75
2021/01/30 01:11:48;;;;;;;34.17;18.67;;;-0.80;1.00;;;;;;4885686;28;21223;-75
2021/01/30 01:14:11;;;;;;;37.93;19.50;;;-0.70;1.00;;;;;;4889952;28;21008;-74
2021/01/30 01:16:35;;;;;;;33.23;19.00;;;-0.80;1.00;;;;;;4882968;28;20619;-74
2021/01/30 01:18:57;;;;;;;32.00;19.07;;;;;;;;;;4882783;28;20611;-75
2021/01/30 01:21:20;;;;;;;34.47;19.03;;;;;;;;;;4883729;28;21444;-75
2021/01/30 01:23:42;;;;;;;34.20;19.10;;;;;;;;;;4885165;28;20671;-75
2021/01/30 01:26:04;;;;;;;32.23;19.47;;;;;;;;;;4883751;28;20663;-75
2021/01/30 01:28:27;;;;;;;36.83;20.53;;;;;;;;;;4884288;28;20667;-75
2021/01/30 01:30:50;;;;;;;36.53;22.27;;;-0.60;1.00;;;;;;4884280;28;21297;-75
2021/01/30 01:33:12;;;;;;;41.33;24.43;;;;;;;;;;4883379;28;20669;-74
2021/01/30 01:35:34;;;;;;;40.10;22.77;;;;;;;;;;4882797;28;20652;-75
2021/01/30 01:37:57;;;;;;;38.67;21.67;;;;;;;;;;4889677;28;20642;-75
2021/01/30 01:40:22;;;;;;;38.50;23.23;;;-0.60;1.00;;;;;;4884540;28;20644;-75
2021/01/30 01:42:44;;;;;;;43.20;23.43;;;;;;;;;;4882858;28;20695;-75
2021/01/30 01:45:08;;;;;;;43.50;23.60;;;-0.70;1.00;;;;;;4880863;28;20614;-75
2021/01/30 01:47:37;;;;;;;45.93;24.30;;;-0.60;1.00;;;;;;4882187;28;20618;-74
2021/01/30 01:50:04;;;;;;;46.63;25.67;;;-0.60;1.00;;;;;;4893261;28;20680;-75
2021/01/30 01:52:30;;;;;;;42.90;25.07;;;-0.60;1.20;;;;;;4880992;28;20611;-75
2021/01/30 01:54:55;;;;;;;47.33;27.17;;;-0.60;1.00;;;;;;4888293;28;21220;-75
2021/01/30 01:57:17;;;;;;;46.83;27.47;;;;;;;;;;4889833;28;20635;-75
2021/01/30 01:59:42;;;;;;;44.37;26.23;;;-0.50;1.00;;;;;;4889250;28;20231;-74
2021/01/30 02:02:05;;;;;;;41.67;24.43;;;;;;;;;;4901392;28;20722;-75
2021/01/30 02:04:28;;;;;;;37.77;23.67;;;-0.50;1.00;;;;;;4886389;28;20605;-75
2021/01/30 02:06:50;;;;;;;44.27;24.50;;;;;;;;;;4891888;28;20607;-75
2021/01/30 02:09:15;;;;;;;48.00;25.97;;;-0.50;1.00;;;;;;4887974;28;20621;-76
2021/01/30 02:11:37;;;;;;;40.07;24.77;;;;;;;;;;4886722;28;20672;-76
2021/01/30 02:14:01;;;;;;;40.57;23.63;;;-0.40;4.60;;;;;;4886477;28;20618;-75
2021/01/30 02:16:33;;;;;;;41.00;23.57;;;-0.40;6.70;;;;;;4880225;28;20263;-75
2021/01/30 02:19:21;;;;;;;36.00;21.20;;;-0.30;9.70;;;;;;4889093;28;20582;-75
2021/01/30 02:22:12;;;;;;;41.63;23.37;;;-0.40;11.10;;;;;;4886463;28;20618;-75
2021/01/30 02:25:07;;;;;;;42.73;23.23;;;-0.30;9.50;;;;;;4877676;28;20251;-75
2021/01/30 02:27:56;;;;;;;39.73;21.60;;;-0.20;2.90;;;;;;4888648;28;20583;-74
2021/01/30 02:30:57;;;;;;;36.97;22.10;;;-0.20;1.00;;;;;;4887475;28;20628;-74
2021/01/30 02:34:10;;;;;;;38.00;22.30;;;-0.20;1.00;;;;;;4886672;28;20746;-75
2021/01/30 02:36:41;;;;;;;36.67;22.20;;;-0.20;1.00;;;;;;4886053;28;21006;-74
2021/01/30 02:39:15;;;;;;;39.37;22.07;;;-0.20;1.00;;;;;;4885909;28;20607;-75
2021/01/30 02:41:43;;;;;;;35.00;21.03;;;-0.20;1.00;;;;;;4886117;28;20626;-75
2021/01/30 02:44:10;;;;;;;37.53;21.77;;;-0.20;1.00;;;;;;4884256;28;20634;-74
2021/01/30 02:46:38;;;;;;;40.27;22.90;;;0.00;1.00;;;;;;4885865;28;20603;-75
2021/01/30 02:49:07;;;;;;;37.33;21.87;;;-0.20;1.00;;;;;;4891175;28;21232;-75
2021/01/30 02:51:33;;;;;;;39.77;23.67;;;-0.20;1.00;;;;;;4885830;28;21034;-76
2021/01/30 02:54:00;;;;;;;43.77;23.33;;;-0.10;1.00;;;;;;4884582;28;20193;-75
2021/01/30 02:56:24;;;;;;;40.40;22.87;;;-0.10;1.00;;;;;;4887682;28;20610;-75
2021/01/30 02:58:51;;;;;;;38.93;21.77;;;-0.10;1.00;;;;;;4887915;28;21479;-74
2021/01/30 03:01:13;;;;;;;41.83;23.33;;;;;;;;;;4884435;28;21007;-75
2021/01/30 03:03:35;;;;;;;40.20;22.97;;;;;;;;;;4885657;28;21216;-75
2021/01/30 03:06:05;;;;;;;41.97;24.43;;;0.00;1.00;;;;;;4885600;28;20614;-75
2021/01/30 03:08:34;;;;;;;46.93;24.73;;;0.10;1.00;;;;;;4884884;28;21030;-76
2021/01/30 03:11:04;;;;;;;44.20;23.77;;;0.10;1.00;;;;;;4885651;28;20611;-74
2021/01/30 03:13:30;;;;;;;43.93;23.23;;;0.10;1.00;;;;;;4892117;28;20215;-75
2021/01/30 03:15:56;;;;;;;37.97;22.60;;;0.10;1.00;;;;;;4885491;28;20663;-75
2021/01/30 03:18:22;;;;;;;45.33;24.40;;;0.10;1.00;;;;;;4886134;28;20602;-75
2021/01/30 03:20:46;;;;;;;40.07;23.10;;;0.10;1.00;;;;;;4886750;28;20613;-76
2021/01/30 03:23:10;;;;;;;37.37;23.23;;;0.10;1.00;;;;;;4887368;28;20208;-77
2021/01/30 03:25:34;;;;;;;37.00;22.00;;;0.10;1.00;;;;;;4887266;28;20599;-75
2021/01/30 03:27:58;;;;;;;35.90;21.70;;;0.10;1.00;;;;;;4885384;28;20668;-75
2021/01/30 03:30:21;;;;;;;35.73;22.53;;;;;;;;;;4886072;28;20259;-74
2021/01/30 03:32:43;;;;;;;35.77;22.00;;;;;;;;;;4889823;28;20240;-76
2021/01/30 03:35:09;;;;;;;35.83;21.50;;;0.10;1.00;;;;;;4884745;28;20610;-75
2021/01/30 03:37:31;;;;;;;43.47;23.53;;;;;;;;;;4885040;28;20955;-75
2021/01/30 03:39:53;;;;;;;37.57;22.67;;;;;;;;;;4884282;28;20194;-75
2021/01/30 03:42:16;;;;;;;40.60;24.13;;;;;;;;;;4885667;28;20654;-76
2021/01/30 03:44:39;;;;;;;39.80;24.37;;;0.10;1.00;;;;;;4886386;28;20694;-75
2021/01/30 03:47:02;;;;;;;40.30;24.00;;;;;;;;;;4884373;28;20177;-74
2021/01/30 03:49:24;;;;;;;41.47;24.33;;;;;;;;;;4878933;28;20613;-75
2021/01/30 03:51:46;;;;;;;46.93;25.90;;;;;;;;;;4887260;28;20951;-76
2021/01/30 03:54:08;;;;;;;43.57;24.33;;;;;;;;;;4886684;28;21170;-75
2021/01/30 03:56:31;;;;;;;39.33;24.20;;;;;;;;;;4883312;28;20622;-75
2021/01/30 03:58:53;;;;;;;41.83;24.63;;;;;;;;;;4883198;28;20634;-74
2021/01/30 04:01:16;;;;;;;46.37;25.40;;;0.00;1.00;;;;;;4882036;28;20224;-74
2021/01/30 04:03:38;;;;;;;42.77;25.80;;;;;;;;;;4884718;28;20672;-75
2021/01/30 04:06:00;;;;;;;41.77;25.30;;;;;;;;;;4884779;28;20598;-75
2021/01/30 04:08:23;;;;;;;51.90;28.77;;;;;;;;;;4886529;28;20622;-75
2021/01/30 04:10:45;;;;;;;44.77;26.37;;;;;;;;;;4886566;28;20601;-74
2021/01/30 04:13:10;;;;;;;42.23;24.17;;;0.10;1.00;;;;;;4885746;28;21219;-75
2021/01/30 04:15:34;;;;;;;44.80;26.27;;;0.10;1.00;;;;;;4887886;28;20609;-74
2021/01/30 04:17:58;;;;;;;44.17;25.90;;;0.10;1.00;;;;;;4887093;28;20595;-75
2021/01/30 04:20:20;;;;;;;45.00;26.93;;;;;;;;;;4886095;28;20622;-76
2021/01/30 04:22:42;;;;;;;44.70;25.17;;;;;;;;;;4886537;28;20246;-75
2021/01/30 04:25:05;;;;;;;45.47;25.70;;;0.10;1.00;;;;;;4890982;28;20211;-75
2021/01/30 04:27:28;;;;;;;46.07;26.60;;;;;;;;;;4887767;28;20618;-75
2021/01/30 04:29:50;;;;;;;45.90;26.20;;;;;;;;;;4884098;28;20185;-74
2021/01/30 04:32:12;;;;;;;49.53;28.30;;;;;;;;;;4884480;28;20681;-75
2021/01/30 04:34:35;;;;;;;45.87;26.17;;;0.10;1.00;;;;;;4884198;28;20656;-75
2021/01/30 04:36:57;;;;;;;48.67;26.77;;;;;;;;;;4884399;28;20189;-76
2021/01/30 04:39:19;;;;;;;41.07;25.03;;;;;;;;;;4885263;28;21392;-75
2021/01/30 04:42:03;;;;;;;45.33;24.90;;;0.10;1.00;;;;;;4886886;28;20666;-76
2021/01/30 04:44:33;;;;;;;45.83;25.73;;;0.10;1.00;;;;;;4891634;28;20589;-75
2021/01/30 04:47:07;;;;;;;42.37;24.63;;;0.10;1.00;;;;;;4884125;28;20595;-75
2021/01/30 04:49:39;;;;;;;39.23;24.77;;;0.10;1.00;;;;;;4886487;28;20589;-75
2021/01/30 04:52:09;;;;;;;41.30;25.77;;;0.10;1.00;;;;;;4886709;28;20590;-76
2021/01/30 04:54:54;;;;;;;42.00;25.60;;;0.10;1.00;;;;;;4883433;28;20590;-77
2021/01/30 04:57:33;;;;;;;44.43;26.30;;;0.10;1.00;;;;;;4884020;28;20681;-74
2021/01/30 05:00:15;;;;;;;40.77;25.47;;;0.20;1.00;;;;;;4886500;28;20582;-75
2021/01/30 05:02:42;;;;;;;49.70;27.40;;;0.20;1.00;;;;;;4885657;28;20232;-75
2021/01/30 05:05:09;;;;;;;46.67;25.43;;;0.20;1.00;;;;;;4885700;28;21160;-75
2021/01/30 05:07:36;;;;;;;43.87;27.07;;;0.20;1.00;;;;;;4883924;28;20602;-75
2021/01/30 05:10:01;;;;;;;44.37;26.50;;;0.30;1.00;;;;;;4883705;28;21257;-76
2021/01/30 05:12:32;;;;;;;46.20;28.23;;;0.20;1.00;;;;;;4885737;28;20676;-75
2021/01/30 05:15:00;;;;;;;45.70;26.40;;;0.20;1.00;;;;;;4886146;28;21146;-75
2021/01/30 05:17:28;;;;;;;47.57;27.27;;;0.20;1.00;;;;;;4883936;28;20188;-77
2021/01/30 05:20:02;;;;;;;45.00;26.27;;;0.20;1.00;;;;;;4883603;28;20700;-75
2021/01/30 05:22:34;;;;;;;44.90;27.00;;;0.30;1.00;;;;;;4883647;28;20205;-75
2021/01/30 05:24:56;;;;;;;41.33;24.83;;;;;;;;;;4891010;28;20238;-75
2021/01/30 05:27:44;;;;;;;42.97;25.67;;;0.30;1.00;;;;;;4888032;28;20647;-74
2021/01/30 05:30:13;;;;;;;40.53;24.37;;;0.20;1.00;;;;;;4884291;28;20630;-75
2021/01/30 05:32:44;;;;;;;43.40;25.87;;;0.30;1.00;;;;;;4886189;28;20614;-74
2021/01/30 05:35:10;;;;;;;44.00;25.00;;;0.30;1.00;;;;;;4886377;28;20181;-75
2021/01/30 05:37:38;;;;;;;39.70;25.83;;;0.30;1.00;;;;;;4887294;28;20743;-75
2021/01/30 05:40:16;;;;;;;45.17;27.10;;;0.30;1.00;;;;;;4887092;28;20663;-75
2021/01/30 05:42:46;;;;;;;44.47;26.10;;;0.30;1.00;;;;;;4884811;28;20613;-75
2021/01/30 05:45:18;;;;;;;46.33;28.20;;;0.30;1.00;;;;;;4888458;28;20657;-75
2021/01/30 05:47:40;;;;;;;41.97;25.67;;;;;;;;;;4887198;28;20224;-77
2021/01/30 05:50:15;;;;;;;41.97;24.27;;;0.30;1.00;;;;;;4888014;28;21229;-75
2021/01/30 05:52:38;;;;;;;44.93;27.23;;;0.30;1.00;;;;;;4887083;28;20640;-75
2021/01/30 05:55:01;;;;;;;44.80;27.80;;;;;;;;;;4886777;28;20235;-75
2021/01/30 05:57:23;;;;;;;44.83;26.83;;;;;;;;;;4886208;28;20231;-75
2021/01/30 05:59:49;;;;;;;40.83;24.50;;;0.40;1.00;;;;;;4886976;28;20704;-76
2021/01/30 06:02:13;;;;;;;41.60;25.90;;;1.70;1.00;;;;;;4891421;28;20653;-75
2021/01/30 06:04:35;;;;;;;42.17;26.40;;;;;;;;;;4886698;28;20625;-75
2021/01/30 06:06:57;;;;;;;43.20;27.90;;;;;;;;;;4886212;28;20668;-75
2021/01/30 06:09:34;;;;;;;41.60;26.17;;;0.50;1.00;;;;;;4887764;28;20201;-75
2021/01/30 06:11:57;;;;;;;43.03;25.93;;;;;;;;;;4883907;28;21200;-74
2021/01/30 06:14:31;;;;;;;47.13;28.47;;;0.60;1.00;;;;;;4887572;28;20622;-74
2021/01/30 06:16:59;;;;;;;59.87;34.87;;;;;;;;;;4888671;28;20797;-74
2021/01/30 06:19:23;;;;;;;45.50;29.23;;;0.60;1.00;;;;;;4886610;28;20602;-75
2021/01/30 06:21:47;;;;;;;40.03;25.60;;;0.60;1.00;;;;;;4885150;28;20239;-75
2021/01/30 06:24:11;;;;;;;46.37;27.93;;;0.60;1.00;;;;;;4890628;28;20216;-76
2021/01/30 06:26:41;;;;;;;42.10;27.03;;;0.50;1.00;;;;;;4889390;28;20639;-74
2021/01/30 06:29:06;;;;;;;48.00;29.97;;;0.50;1.00;;;;;;4888328;28;21011;-74
2021/01/30 06:31:32;;;;;;;49.10;31.33;;;0.50;1.00;;;;;;4885914;28;21192;-75
2021/01/30 06:33:59;;;;;;;47.10;31.50;;;0.50;1.00;;;;;;4890990;28;20642;-76
2021/01/30 06:36:25;;;;;;;48.80;30.50;;;0.60;1.00;;;;;;4885640;28;20193;-75
2021/01/30 06:38:51;;;;;;;43.83;28.27;;;0.60;1.00;;;;;;4885596;28;20599;-75
2021/01/30 06:41:24;;;;;;;45.17;27.77;;;0.60;1.00;;;;;;4885378;28;20735;-76
2021/01/30 06:43:51;;;;;;;42.47;27.00;;;0.60;1.00;;;;;;4888834;28;20633;-75
2021/01/30 06:46:17;;;;;;;40.27;26.50;;;0.70;1.00;;;;;;4887437;28;20181;-75
2021/01/30 06:48:40;;;;;;;49.97;33.80;;;0.80;1.00;;;;;;4885297;28;21015;-75
2021/01/30 06:51:03;;;;;;;60.67;42.27;;;;;;;;;;4885921;28;20189;-75
2021/01/30 06:53:28;;;;;;;57.40;39.50;;;1.10;56.40;;;;;;4888155;28;20603;-76
2021/01/30 06:55:50;;;;;;;54.40;34.70;;;;;;;;;;4887505;28;20185;-77
2021/01/30 06:58:21;;;;;;;42.87;28.13;;;1.30;78.90;;;;;;4887347;28;20978;-76
2021/01/30 07:00:44;;;;;;;46.03;27.93;;;1.30;81.10;;;;;;4887165;28;20915;-76
2021/01/30 07:03:14;;;;;;;30.60;20.43;;;1.40;85.50;;;;;;4887907;28;20777;-75
2021/01/30 07:05:46;;;;;;;36.67;23.87;;;1.50;87.00;;;;;;4885636;28;20697;-76
2021/01/30 07:08:27;;;;;;;31.27;19.17;;;1.50;89.80;;;;;;4885950;28;20181;-76
2021/01/30 07:11:00;;;;;;;23.37;15.40;;;1.70;97.60;;;;;;4886028;28;20629;-77
2021/01/30 07:13:39;;;;;;;21.63;13.37;;;1.80;99.90;;;;;;4885761;28;20635;-76
2021/01/30 07:16:14;;;;;;;18.47;11.80;;;1.90;99.90;;;;;;4890803;28;20571;-78
2021/01/30 07:18:51;;;;;;;14.70;9.20;;;2.20;99.90;;;;;;4885365;28;20177;-78
2021/01/30 07:21:21;;;;;;;19.60;9.90;;;2.30;99.90;;;;;;4892380;28;20188;-76
2021/01/30 07:23:50;;;;;;;12.93;8.70;;;2.50;99.90;;;;;;4887945;28;20263;-76
2021/01/30 07:26:18;;;;;;;15.37;8.53;;;2.60;99.90;;;;;;4888646;28;20190;-77
2021/01/30 07:28:45;;;;;;;11.30;6.57;;;2.60;99.90;;;;;;4888038;28;20189;-77
2021/01/30 07:31:12;;;;;;;9.03;5.57;;;2.70;99.90;;;;;;4886453;28;20176;-76
2021/01/30 07:33:42;;;;;;;10.70;6.47;;;2.90;99.90;;;;;;4885228;28;20771;-78
2021/01/30 07:36:09;;;;;;;7.27;4.70;;;3.00;99.90;;;;;;4885220;28;20255;-79
2021/01/30 07:38:40;;;;;;;7.63;4.57;;;3.00;99.90;;;;;;4880747;28;20222;-79
2021/01/30 07:41:07;;;;;;;6.77;4.03;;;3.10;99.90;;;;;;4886944;28;20189;-76
2021/01/30 07:43:33;;;;;;;5.63;3.67;;;2.10;99.90;;;;;;4884949;28;21211;-76
2021/01/30 07:46:06;;;;;;;5.30;3.43;;;3.20;99.90;;;;;;4879769;28;20247;-77
2021/01/30 07:48:33;;;;;;;6.57;3.97;;;3.30;99.90;;;;;;4883323;28;20207;-76
2021/01/30 07:50:59;;;;;;;7.47;3.93;;;3.30;99.90;;;;;;4887078;28;20184;-76
2021/01/30 07:53:24;;;;;;;8.53;4.80;;;3.40;99.90;;;;;;4883146;28;20204;-75
2021/01/30 07:56:03;;;;;;;7.13;4.37;;;3.50;99.90;;;;;;4887190;28;20646;-76
2021/01/30 07:58:51;;;;;;;6.83;4.47;;;3.40;99.90;;;;;;4887415;28;20217;-75
2021/01/30 08:01:26;;;;;;;11.60;5.60;;;3.50;99.90;;;;;;4883700;28;20871;-76
2021/01/30 08:04:11;;;;;;;7.90;5.00;;;3.50;99.90;;;;;;4884762;28;20238;-75
2021/01/30 08:06:46;;;;;;;8.40;4.97;;;3.50;99.90;;;;;;4884680;28;20173;-75
2021/01/30 08:09:20;;;;;;;8.93;4.70;;;3.50;99.90;;;;;;4882284;28;20212;-76
2021/01/30 08:11:48;;;;;;;10.03;5.47;;;3.60;99.90;;;;;;4883450;28;20639;-77
2021/01/30 08:14:27;;;;;;;9.30;5.47;;;3.60;99.90;;;;;;4882278;28;20303;-76
2021/01/30 08:16:57;;;;;;;8.93;5.10;;;3.50;99.90;;;;;;4886337;28;20207;-76
2021/01/30 08:19:28;;;;;;;16.10;6.20;;;3.60;99.90;;;;;;4888132;28;20192;-77
2021/01/30 08:21:56;;;;;;;6.97;4.70;;;3.70;99.90;;;;;;4884877;28;20186;-76
2021/01/30 08:24:23;;;;;;;14.07;6.20;;;3.70;99.90;;;;;;4884342;28;20690;-76
2021/01/30 08:26:51;;;;;;;9.70;4.73;;;3.70;99.90;;;;;;4886163;28;20242;-77
2021/01/30 08:29:17;;;;;;;11.70;6.00;;;3.80;99.90;;;;;;4884524;28;20236;-77
2021/01/30 08:31:43;;;;;;;9.27;5.60;;;3.90;99.90;;;;;;4883348;28;20185;-76
2021/01/30 08:34:24;;;;;;;7.07;4.40;;;3.00;99.90;;;;;;4882851;28;20182;-75
2021/01/30 08:36:49;;;;;;;7.73;4.83;;;3.90;99.90;;;;;;4883053;28;20185;-78
2021/01/30 08:39:22;;;;;;;11.40;6.00;;;3.80;99.90;;;;;;4887760;28;20647;-77
2021/01/30 08:41:47;;;;;;;7.73;5.07;;;3.90;99.90;;;;;;4884501;28;20234;-77
2021/01/30 08:44:29;;;;;;;7.37;4.87;;;3.90;99.90;;;;;;4889335;28;20251;-75
2021/01/30 08:47:07;;;;;;;8.10;4.73;;;3.90;99.90;;;;;;4894753;28;20168;-76
2021/01/30 08:49:30;;;;;;;11.53;5.70;;;;;;;;;;4883210;28;20177;-75
2021/01/30 08:52:22;;;;;;;8.37;5.70;;;4.00;99.90;;;;;;4875417;28;20642;-74
2021/01/30 08:54:46;;;;;;;8.03;5.03;;;4.00;99.90;;;;;;4886599;28;20230;-75
2021/01/30 08:57:41;;;;;;;8.90;5.40;;;4.10;99.90;;;;;;4894300;28;20185;-75
2021/01/30 09:00:06;;;;;;;8.07;5.10;;;4.20;99.90;;;;;;4885727;28;20743;-76
2021/01/30 09:02:55;;;;;;;8.10;5.57;;;4.20;99.90;;;;;;4877425;28;20236;-75
2021/01/30 09:05:43;;;;;;;9.17;5.80;;;4.20;99.90;;;;;;4841595;28;20911;-74
2021/01/30 09:08:38;;;;;;;9.67;6.33;;;4.20;99.90;;;;;;4896881;28;20226;-76
2021/01/30 09:11:19;;;;;;;9.97;6.20;;;4.20;99.90;;;;;;4874032;28;20239;-76
2021/01/30 09:14:07;;;;;;;11.10;7.77;;;4.30;97.90;;;;;;4880719;28;20181;-76
2021/01/30 09:16:40;;;;;;;11.20;6.57;;;4.40;98.90;;;;;;4891741;28;20630;-75
2021/01/30 09:19:03;;;;;;;9.10;6.43;;;4.50;99.40;;;;;;4889281;28;20181;-75
2021/01/30 09:21:34;;;;;;;12.80;7.50;;;4.50;99.80;;;;;;4886948;28;20658;-76
2021/01/30 09:24:29;;;;;;;9.10;6.23;;;4.60;95.90;;;;;;4885893;28;20202;-76
2021/01/30 09:27:03;;;;;;;9.80;5.43;;;4.60;93.00;;;;;;4891283;28;20234;-76
2021/01/30 09:29:34;;;;;;;8.53;5.10;;;4.60;92.30;;;;;;4886302;28;20193;-77
2021/01/30 09:31:57;;;;;;;6.53;4.33;;;;;;;;;;4880692;28;20181;-75
2021/01/30 09:34:21;;;;;;;8.67;4.10;;;4.60;92.90;;;;;;4889939;28;20262;-75
2021/01/30 09:36:46;;;;;;;6.03;3.70;;;4.60;92.30;;;;;;4894226;28;20246;-75
2021/01/30 09:39:22;;;;;;;7.40;4.07;;;4.60;93.20;;;;;;4885755;28;20223;-75
2021/01/30 09:41:44;;;;;;;8.93;5.27;;;;;;;;;;4882399;28;20497;-76
2021/01/30 09:44:16;;;;;;;7.80;4.93;;;4.50;92.50;;;;;;4887384;28;20208;-76
2021/01/30 09:46:42;;;;;;;7.07;4.70;;;4.50;93.40;;;;;;4886748;28;20204;-74
2021/01/30 09:49:07;;;;;;;8.07;5.37;;;4.50;91.30;;;;;;4891852;28;20189;-74
2021/01/30 09:51:30;;;;;;;7.40;4.87;;;4.50;81.10;;;;;;4895205;28;20679;-76
2021/01/30 09:53:56;;;;;;;7.63;4.60;;;4.40;78.10;;;;;;4883703;28;20189;-75
2021/01/30 09:56:21;;;;;;;10.53;5.77;;;4.30;57.60;;;;;;4881110;28;20713;-73
2021/01/30 09:58:46;;;;;;;9.87;5.67;;;4.30;58.30;;;;;;4894423;28;20281;-74
2021/01/30 10:01:13;;;;;;;9.13;5.53;;;4.30;53.60;;;;;;4890812;28;20243;-75
2021/01/30 10:03:38;;;;;;;10.33;5.90;;;4.20;40.60;;;;;;4889636;28;20748;-75
2021/01/30 10:06:10;;;;;;;8.00;5.43;;;4.20;28.10;;;;;;4894396;28;20238;-76
2021/01/30 10:08:34;;;;;;;11.07;6.83;;;4.20;36.50;;;;;;4881657;28;20591;-75
2021/01/30 10:11:06;;;;;;;10.33;6.63;;;4.30;43.70;;;;;;4877359;28;20251;-76
2021/01/30 10:13:29;;;;;;;12.13;7.67;;;;;;;;;;4895781;28;20188;-75
2021/01/30 10:15:54;;;;;;;16.60;10.30;;;4.30;17.80;;;;;;4897313;28;20242;-75
2021/01/30 10:18:20;;;;;;;16.00;9.63;;;4.30;12.40;;;;;;4895653;28;20180;-74
2021/01/30 10:20:44;;;;;;;17.17;10.37;;;4.20;5.20;;;;;;4892174;28;20309;-75
2021/01/30 10:23:10;;;;;;;17.53;11.37;;;4.20;10.20;;;;;;4885126;28;20268;-75
2021/01/30 10:25:32;;;;;;;19.77;12.53;;;;;;;;;;4886925;28;20565;-74
2021/01/30 10:28:03;;;;;;;19.33;11.87;;;4.10;1.00;;;;;;4887667;28;20185;-75
2021/01/30 10:30:26;;;;;;;23.63;14.27;;;;;;;;;;4883240;28;20192;-75
2021/01/30 10:32:52;;;;;;;21.97;14.50;;;3.80;1.00;;;;;;4886011;28;20185;-72
2021/01/30 10:35:21;;;;;;;25.27;15.50;;;3.70;1.00;;;;;;4889637;28;20854;-75
2021/01/30 10:37:48;;;;;;;28.83;16.97;;;3.60;1.00;;;;;;4885115;28;20197;-75
2021/01/30 10:40:31;;;;;;;26.27;17.53;;;3.60;1.00;;;;;;4885554;28;20250;-74
2021/01/30 10:42:58;;;;;;;27.63;17.43;;;3.60;1.00;;;;;;4893896;28;20333;-75
2021/01/30 10:45:25;;;;;;;26.60;17.97;;;3.50;1.00;;;;;;4884047;28;20197;-74
2021/01/30 10:47:51;;;;;;;25.73;16.57;;;3.50;22.60;;;;;;4887955;28;20619;-74
2021/01/30 10:50:19;;;;;;;24.67;16.90;;;3.40;1.00;;;;;;4884185;28;20192;-73
2021/01/30 10:52:41;;;;;;;24.60;15.93;;;;;;;;;;4883394;28;20242;-75
2021/01/30 10:55:25;;;;;;;25.87;16.57;;;3.40;99.90;;;;;;4892071;28;20184;-74
2021/01/30 10:57:48;;;;;;;26.20;17.60;;;;;;;;;;4876998;28;20258;-76
2021/01/30 11:00:22;;;;;;;211.00;107.10;;;;;;;;;;4891400;28;20223;-75
2021/01/30 11:02:44;;;;;;;243.53;124.70;;;3.10;1.00;;;;;;4876281;28;20708;-75
2021/01/30 11:05:22;;;;;;;30.87;17.03;;;2.90;1.00;;;;;;4885524;28;20651;-75
2021/01/30 11:07:47;;;;;;;27.37;15.23;;;2.80;1.00;;;;;;4881583;28;20242;-75
2021/01/30 11:10:22;;;;;;;30.27;16.03;;;2.60;1.00;;;;;;4882448;28;20192;-75
2021/01/30 11:12:44;;;;;;;22.87;15.20;;;;;;;;;;4877030;28;20223;-74
2021/01/30 11:15:15;;;;;;;27.40;15.77;;;2.30;1.00;;;;;;4883466;28;20180;-75
2021/01/30 11:17:37;;;;;;;33.40;16.37;;;;;;;;;;4890725;28;20184;-73
2021/01/30 11:20:00;;;;;;;25.27;13.97;;;;;;;;;;4881649;28;20588;-74
2021/01/30 11:22:24;;;;;;;30.50;16.73;;;2.00;1.00;;;;;;4887531;28;20219;-75
2021/01/30 11:24:48;;;;;;;28.93;15.83;;;2.00;1.00;;;;;;4884961;28;20239;-75
2021/01/30 11:27:28;;;;;;;32.03;16.97;;;1.90;1.00;;;;;;4884080;28;20583;-74
2021/01/30 11:29:50;;;;;;;26.50;15.30;;;;;;;;;;4884540;28;20185;-76
2021/01/30 11:32:17;;;;;;;32.37;16.60;;;1.80;99.90;;;;;;4884537;28;20189;-76
2021/01/30 11:34:40;;;;;;;31.27;16.30;;;;;;;;;;4883522;28;20250;-74
2021/01/30 11:37:02;;;;;;;21.07;14.40;;;1.50;1.00;;;;;;4881035;28;20189;-75
2021/01/30 11:39:30;;;;;;;27.63;15.87;;;2.60;1.00;;;;;;4876974;28;20182;-75
2021/01/30 11:41:54;;;;;;;53.30;21.93;;;1.30;1.00;;;;;;4883473;28;20592;-74
2021/01/30 11:44:16;;;;;;;17.93;11.33;;;;;;;;;;4877069;28;20204;-75
2021/01/30 11:46:38;;;;;;;20.00;12.53;;;;;;;;;;4887626;28;20246;-74
2021/01/30 11:49:00;;;;;;;25.20;15.97;;;;;;;;;;4881389;28;20672;-75
2021/01/30 11:51:25;;;;;;;26.07;16.40;;;1.00;99.90;;;;;;4888979;28;20185;-74
2021/01/30 11:53:48;;;;;;;21.37;13.27;;;;;;;;;;4892558;28;20561;-75
2021/01/30 11:56:10;;;;;;;15.87;10.70;;;;;;;;;;4892215;28;20189;-74
2021/01/30 11:58:35;;;;;;;21.17;12.43;;;0.90;1.00;;;;;;4881733;28;20319;-74
2021/01/30 12:00:57;;;;;;;14.50;9.47;;;;;;;;;;4882019;28;20185;-75
2021/01/30 12:03:24;;;;;;;15.70;9.80;;;1.10;1.00;;;;;;4883775;28;20646;-74
2021/01/30 12:05:46;;;;;;;12.57;7.87;;;;;;;;;;4888503;28;20189;-74
2021/01/30 12:08:08;;;;;;;17.20;10.30;;;;;;;;;;4885470;28;20187;-75
2021/01/30 12:10:31;;;;;;;16.80;9.33;;;;;;;;;;4883618;28;20185;-75
2021/01/30 12:12:53;;;;;;;16.10;9.33;;;;;;;;;;4881959;28;20713;-73
2021/01/30 12:15:16;;;;;;;13.70;8.80;;;2.10;1.00;;;;;;4879100;28;20885;-74
2021/01/30 12:17:40;;;;;;;12.30;7.83;;;2.30;1.00;;;;;;4884714;28;20218;-74
2021/01/30 12:20:03;;;;;;;15.97;10.00;;;2.50;1.00;;;;;;4884555;28;20238;-74
2021/01/30 12:22:25;;;;;;;15.70;9.97;;;2.50;1.00;;;;;;4883708;28;20242;-75
2021/01/30 12:24:48;;;;;;;7.80;5.50;;;;;;;;;;4879172;28;20205;-75
2021/01/30 12:27:10;;;;;;;12.13;7.53;;;2.40;99.90;;;;;;4883854;28;20189;-76
2021/01/30 12:29:33;;;;;;;9.53;6.57;;;;;;;;;;4881227;28;20189;-73
2021/01/30 12:31:55;;;;;;;13.27;8.47;;;2.00;99.90;;;;;;4883690;28;20181;-73
2021/01/30 12:34:18;;;;;;;14.60;9.77;;;;;;;;;;4886597;28;20201;-73
2021/01/30 12:36:40;;;;;;;17.07;10.23;;;;;;;;;;4882128;28;20662;-76
2021/01/30 12:39:03;;;;;;;16.23;9.87;;;;;;;;;;4889450;28;20531;-74
2021/01/30 12:41:25;;;;;;;11.10;7.77;;;;;;;;;;4881457;28;20716;-75
2021/01/30 12:43:48;;;;;;;12.27;8.47;;;;;;;;;;4886131;28;20185;-75
2021/01/30 12:46:10;;;;;;;11.03;7.67;;;;;;;;;;4880391;28;20235;-74
2021/01/30 12:48:33;;;;;;;11.07;6.80;;;2.20;99.90;;;;;;4881834;28;20188;-74
2021/01/30 12:50:57;;;;;;;17.27;11.27;;;;;;;;;;4884212;28;20185;-73
2021/01/30 12:53:19;;;;;;;11.77;7.80;;;3.00;99.90;;;;;;4884209;28;20590;-73
2021/01/30 12:55:41;;;;;;;20.00;11.47;;;;;;;;;;4885398;28;20196;-74
2021/01/30 12:58:14;;;;;;;13.73;8.87;;;2.30;99.90;;;;;;4879503;28;20209;-73
2021/01/30 13:00:37;;;;;;;15.60;9.43;;;;;;;;;;4880735;28;20692;-74
2021/01/30 13:02:59;;;;;;;16.77;10.03;;;;;;;;;;4893979;28;20262;-73
2021/01/30 13:05:22;;;;;;;11.60;7.40;;;2.30;72.90;;;;;;4880611;28;20263;-74
2021/01/30 13:07:44;;;;;;;11.00;7.13;;;2.20;51.50;;;;;;4880311;28;20185;-74
2021/01/30 13:10:10;;;;;;;17.07;10.33;;;2.00;94.50;;;;;;4889849;28;20203;-74
2021/01/30 13:12:32;;;;;;;15.40;8.27;;;;;;;;;;4882695;28;20350;-73
2021/01/30 13:14:54;;;;;;;14.47;9.13;;;;;;;;;;4883020;28;20184;-73